Date,TemperatureHighF,TemperatureAvgF,TemperatureLowF,DewpointHighF,DewpointAvgF,DewpointLowF,HumidityHigh,HumidityAvg,HumidityLow,PressureMaxIn,PressureMinIn,WindSpeedMaxMPH,WindSpeedAvgMPH,GustSpeedMaxMPH,PrecipitationSumIn
2013-4-1,52.7,45.3,36.9,45.5,31.8,18.4,86,61,30,30.19,29.90,9,3,14,0.00
2013-4-2,53.8,39.6,26.4,24.9,17.3,10.8,68,43,21,30.34,30.19,11,2,14,0.00
2013-4-3,57.7,41.1,26.6,23.9,16.1,10.4,63,38,21,30.47,30.31,12,3,16,0.00
2013-4-4,57.0,44.9,33.8,32.3,23.0,15.2,67,43,30,30.36,30.06,9,2,13,0.00
2013-4-5,41.9,40.4,38.5,32.5,31.6,30.9,75,71,67,30.07,30.06,1,0,2,0.00
2013-4-8,65.7,60.5,51.6,52.3,50.8,42.5,78,71,62,29.96,29.83,4,0,5,2.15
2013-4-9,85.1,69.3,55.8,60.1,55.0,50.4,83,63,39,30.06,29.87,19,4,27,0.06
2013-4-10,88.2,73.0,60.3,62.5,57.9,54.4,84,61,38,29.95,29.73,18,4,27,0.06
2013-4-11,76.1,66.9,58.1,61.6,57.4,53.6,96,73,57,29.75,29.50,14,2,21,0.47
2013-4-12,58.5,50.1,41.7,57.7,42.2,34.4,98,76,52,29.94,29.49,17,5,23,0.26
2013-4-13,64.9,48.9,36.7,39.6,35.6,31.4,85,63,33,30.05,29.93,15,3,21,0.00
2013-4-14,77.2,57.8,37.8,48.6,42.6,34.8,89,61,35,30.04,29.82,12,2,24,0.00
2013-4-15,81.0,64.7,56.5,57.2,52.5,47.7,85,66,42,29.99,29.87,9,2,16,0.00
2013-4-16,86.0,68.4,55.6,65.3,58.8,51.8,91,73,48,30.10,29.92,16,3,21,0.07
2013-4-17,82.8,66.7,59.0,66.7,61.2,57.3,98,84,55,30.14,29.92,8,2,14,0.77
2013-4-18,86.9,73.5,60.6,63.5,58.4,53.6,86,61,39,29.94,29.57,16,3,29,0.02
2013-4-19,73.2,52.0,39.2,62.1,42.8,31.1,95,72,52,30.04,29.42,16,5,23,0.41
2013-4-20,62.2,46.5,33.6,37.1,30.0,18.8,88,57,24,30.34,30.04,11,3,17,0.00
2013-4-21,73.2,51.2,34.9,37.6,30.7,25.9,74,49,20,30.48,30.27,10,3,13,0.00
2013-4-22,82.8,58.3,38.7,47.3,37.6,28.6,72,49,21,30.31,30.07,8,1,12,0.00
2013-4-23,75.2,60.1,44.2,53.9,47.9,40.6,88,66,46,30.14,29.90,14,2,16,0.00
2013-4-24,61.2,52.7,44.2,56.3,46.5,37.7,95,80,67,30.24,29.80,11,3,20,0.61
2013-4-25,64.8,49.4,34.2,45.9,36.4,31.3,94,64,38,30.34,30.24,11,2,20,0.00
2013-4-26,69.8,54.2,36.1,42.9,35.3,27.4,85,52,24,30.45,30.29,6,1,9,0.00
2013-4-27,64.2,56.0,47.8,53.7,47.6,41.3,94,74,58,30.32,30.06,7,1,9,0.09
2013-4-28,72.5,60.5,53.4,59.7,55.9,51.9,97,85,61,30.60,29.82,14,2,21,0.43
2013-4-29,70.7,58.8,52.3,57.6,53.7,49.6,94,84,62,30.01,29.90,7,1,9,0.01
2013-4-30,90.5,63.6,45.7,61.9,52.9,44.9,98,73,34,30.06,29.92,6,1,10,0.00